createdAt,value
2022-12-31T00:01:46.388Z,2.27
2022-12-31T00:04:13.172Z,2.25
2022-12-31T00:06:39.820Z,2.23
2022-12-31T00:09:09.870Z,2.22
2022-12-31T00:11:37.673Z,2.22
2022-12-31T00:14:04.756Z,2.24
2022-12-31T00:16:36.474Z,2.25
2022-12-31T00:19:05.129Z,2.26
2022-12-31T00:21:33.505Z,2.24
2022-12-31T00:24:00.992Z,2.20
2022-12-31T00:26:29.926Z,2.19
2022-12-31T00:28:58.447Z,2.19
2022-12-31T00:31:28.184Z,2.17
2022-12-31T00:33:55.708Z,2.09
2022-12-31T00:36:26.092Z,2.05
2022-12-31T00:38:54.654Z,2.03
2022-12-31T00:41:22.549Z,2.02
2022-12-31T00:43:49.602Z,1.93
2022-12-31T00:46:16.994Z,1.94
2022-12-31T00:48:43.660Z,1.95
2022-12-31T00:51:12.625Z,1.87
2022-12-31T00:53:39.877Z,1.82
2022-12-31T00:56:18.466Z,1.80
2022-12-31T00:58:45.359Z,1.84
2022-12-31T01:01:20.045Z,1.98
2022-12-31T01:03:48.240Z,2.04
2022-12-31T01:06:15.015Z,2.04
2022-12-31T01:08:41.687Z,2.08
2022-12-31T01:11:19.256Z,2.07
2022-12-31T01:13:52.387Z,2.04
2022-12-31T01:16:23.706Z,2.02
2022-12-31T01:18:50.497Z,2.03
2022-12-31T01:21:18.253Z,1.97
2022-12-31T01:23:45.053Z,1.96
2022-12-31T01:26:14.268Z,1.96
2022-12-31T01:28:41.261Z,1.98
2022-12-31T01:31:10.325Z,1.94
2022-12-31T01:33:37.583Z,1.96
2022-12-31T01:36:13.500Z,2.00
2022-12-31T01:38:41.158Z,1.97
2022-12-31T01:41:12.085Z,1.87
2022-12-31T01:43:54.483Z,1.60
2022-12-31T01:46:40.532Z,1.49
2022-12-31T01:49:17.649Z,1.52
2022-12-31T01:51:48.854Z,1.59
2022-12-31T01:54:18.348Z,1.63
2022-12-31T01:56:47.569Z,1.71
2022-12-31T01:59:17.047Z,1.70
2022-12-31T02:01:44.665Z,1.65
2022-12-31T02:04:13.835Z,1.63
2022-12-31T02:07:02.242Z,1.65
2022-12-31T02:09:29.835Z,1.58
2022-12-31T02:11:56.490Z,1.50
2022-12-31T02:14:26.979Z,1.45
2022-12-31T02:17:09.223Z,1.38
2022-12-31T02:19:57.574Z,1.42
2022-12-31T02:22:54.826Z,1.37
2022-12-31T02:25:43.100Z,1.32
2022-12-31T02:28:31.463Z,1.22
2022-12-31T02:31:11.369Z,1.13
2022-12-31T02:33:52.952Z,1.15
2022-12-31T02:36:25.627Z,1.13
2022-12-31T02:38:52.810Z,1.19
2022-12-31T02:41:39.744Z,1.19
2022-12-31T02:44:29.004Z,1.27
2022-12-31T02:47:13.749Z,1.36
2022-12-31T02:50:13.409Z,1.47
2022-12-31T02:52:52.146Z,1.51
2022-12-31T02:55:35.269Z,1.46
2022-12-31T02:58:01.777Z,1.46
2022-12-31T03:00:51.252Z,1.47
2022-12-31T03:03:20.335Z,1.50
2022-12-31T03:05:49.553Z,1.50
2022-12-31T03:08:23.931Z,1.46
2022-12-31T03:10:51.234Z,1.45
2022-12-31T03:13:20.235Z,1.40
2022-12-31T03:15:46.800Z,1.38
2022-12-31T03:18:18.244Z,1.36
2022-12-31T03:21:06.799Z,1.16
2022-12-31T03:23:35.595Z,0.99
2022-12-31T03:26:09.858Z,0.86
2022-12-31T03:28:41.560Z,0.69
2022-12-31T03:31:08.621Z,0.61
2022-12-31T03:33:38.107Z,0.54
2022-12-31T03:36:08.716Z,0.48
2022-12-31T03:38:35.801Z,0.56
2022-12-31T03:41:02.736Z,0.60
2022-12-31T03:43:29.410Z,0.63
2022-12-31T03:45:58.641Z,0.91
2022-12-31T03:48:26.686Z,1.01
2022-12-31T03:50:53.283Z,0.97
2022-12-31T03:53:19.900Z,0.94
2022-12-31T03:55:52.059Z,0.93
2022-12-31T03:58:18.767Z,0.95
2022-12-31T04:00:45.431Z,1.01
2022-12-31T04:03:12.141Z,0.95
2022-12-31T04:05:38.745Z,0.90
2022-12-31T04:08:05.400Z,0.85
2022-12-31T04:10:31.952Z,0.79
2022-12-31T04:13:00.556Z,0.56
2022-12-31T04:15:27.100Z,0.49
2022-12-31T04:17:53.719Z,0.43
2022-12-31T04:20:20.313Z,0.40
2022-12-31T04:22:46.950Z,0.42
2022-12-31T04:25:13.682Z,0.44
2022-12-31T04:27:41.471Z,0.44
2022-12-31T04:30:09.175Z,0.46
2022-12-31T04:32:35.816Z,0.49
2022-12-31T04:35:02.485Z,0.37
2022-12-31T04:37:29.096Z,0.31
2022-12-31T04:40:00.315Z,0.20
2022-12-31T04:42:30.310Z,0.11
2022-12-31T04:44:57.025Z,0.02
2022-12-31T04:47:24.079Z,-0.05
2022-12-31T04:49:50.856Z,-0.02
2022-12-31T04:52:17.406Z,0.00
2022-12-31T04:54:44.025Z,0.02
2022-12-31T04:57:10.671Z,-0.06
2022-12-31T04:59:37.240Z,-0.10
2022-12-31T05:02:04.011Z,-0.11
2022-12-31T05:04:30.853Z,-0.17
2022-12-31T05:06:57.548Z,-0.24
2022-12-31T05:09:27.515Z,-0.26
2022-12-31T05:11:54.228Z,-0.32
2022-12-31T05:14:20.989Z,-0.44
2022-12-31T05:16:47.828Z,-0.42
2022-12-31T05:19:14.605Z,-0.36
2022-12-31T05:21:41.299Z,-0.35
2022-12-31T05:24:08.410Z,-0.24
2022-12-31T05:26:35.380Z,-0.15
2022-12-31T05:29:02.029Z,-0.13
2022-12-31T05:31:28.754Z,-0.14
2022-12-31T05:33:55.446Z,-0.16
2022-12-31T05:36:22.093Z,-0.21
2022-12-31T05:38:48.809Z,-0.23
2022-12-31T05:41:15.397Z,-0.19
2022-12-31T05:43:42.072Z,-0.12
2022-12-31T05:46:08.981Z,-0.04
2022-12-31T05:48:35.715Z,0.01
2022-12-31T05:51:02.448Z,-0.05
2022-12-31T05:53:29.141Z,-0.14
2022-12-31T05:55:55.730Z,-0.19
2022-12-31T05:58:22.294Z,-0.29
2022-12-31T06:00:48.952Z,-0.23
2022-12-31T06:03:15.669Z,-0.08
2022-12-31T06:05:43.371Z,-0.09
2022-12-31T06:08:12.177Z,-0.09
2022-12-31T06:10:39.933Z,-0.08
2022-12-31T06:13:07.355Z,-0.01
2022-12-31T06:15:37.545Z,0.07
2022-12-31T06:18:04.434Z,0.02
2022-12-31T06:20:31.161Z,0.06
2022-12-31T06:22:57.868Z,0.09
2022-12-31T06:25:24.513Z,0.09
2022-12-31T06:27:51.095Z,0.07
2022-12-31T06:30:17.815Z,0.11
2022-12-31T06:32:44.403Z,0.09
2022-12-31T06:35:11.261Z,0.11
2022-12-31T06:37:37.943Z,0.18
2022-12-31T06:40:05.178Z,0.22
2022-12-31T06:42:31.956Z,0.19
2022-12-31T06:44:59.298Z,0.20
2022-12-31T06:47:26.177Z,0.25
2022-12-31T06:49:53.260Z,0.26
2022-12-31T06:52:20.224Z,0.26
2022-12-31T06:54:47.125Z,0.34
2022-12-31T06:57:14.388Z,0.38
2022-12-31T06:59:41.469Z,0.27
2022-12-31T07:02:29.902Z,0.25
2022-12-31T07:05:11.838Z,0.19
2022-12-31T07:08:01.622Z,0.28
2022-12-31T07:10:47.108Z,0.34
2022-12-31T07:13:46.091Z,0.48
2022-12-31T07:16:30.794Z,0.45
2022-12-31T07:19:16.493Z,0.46
2022-12-31T07:21:43.906Z,0.48
2022-12-31T07:24:11.899Z,0.55
2022-12-31T07:27:03.253Z,0.76
2022-12-31T07:29:29.803Z,0.77
2022-12-31T07:31:56.491Z,0.68
2022-12-31T07:34:30.651Z,0.85
2022-12-31T07:37:01.589Z,0.79
2022-12-31T07:39:37.078Z,0.74
2022-12-31T07:42:09.767Z,0.82
2022-12-31T07:44:45.148Z,0.80
2022-12-31T07:47:27.252Z,0.76
2022-12-31T07:49:55.159Z,0.73
2022-12-31T07:52:22.366Z,0.70
2022-12-31T07:54:49.253Z,0.70
2022-12-31T07:57:18.137Z,0.78
2022-12-31T07:59:50.423Z,0.71
2022-12-31T08:02:44.738Z,0.82
2022-12-31T08:05:29.898Z,0.99
2022-12-31T08:08:05.781Z,1.14
2022-12-31T08:10:43.746Z,1.18
2022-12-31T08:13:12.314Z,1.26
2022-12-31T08:15:40.190Z,1.23
2022-12-31T08:18:08.094Z,1.37
2022-12-31T08:20:58.463Z,1.33
2022-12-31T08:23:32.672Z,1.07
2022-12-31T08:26:17.275Z,1.13
2022-12-31T08:29:16.997Z,1.34
2022-12-31T08:31:58.329Z,1.45
2022-12-31T08:34:34.179Z,1.60
2022-12-31T08:37:32.933Z,1.58
2022-12-31T08:40:08.227Z,1.40
2022-12-31T08:43:01.198Z,1.50
2022-12-31T08:45:41.358Z,1.54
2022-12-31T08:48:35.559Z,1.32
2022-12-31T08:51:02.493Z,1.27
2022-12-31T08:53:29.435Z,1.56
2022-12-31T08:56:03.658Z,1.43
2022-12-31T08:58:45.433Z,1.66
2022-12-31T09:01:14.980Z,1.91
2022-12-31T09:03:47.095Z,2.17
2022-12-31T09:06:36.184Z,2.28
2022-12-31T09:09:28.186Z,2.46
2022-12-31T09:11:59.053Z,2.73
2022-12-31T09:14:34.309Z,3.02
2022-12-31T09:17:10.267Z,3.30
2022-12-31T09:19:36.942Z,3.38
2022-12-31T09:22:04.115Z,3.38
2022-12-31T09:24:31.087Z,3.53
2022-12-31T09:27:09.616Z,3.67
2022-12-31T09:29:42.159Z,3.68
2022-12-31T09:32:08.886Z,3.84
2022-12-31T09:34:35.490Z,3.87
2022-12-31T09:37:18.006Z,3.54
2022-12-31T09:39:47.270Z,3.48
2022-12-31T09:42:35.766Z,3.40
2022-12-31T09:45:30.942Z,3.41
2022-12-31T09:48:07.034Z,3.42
2022-12-31T09:51:11.233Z,3.46
2022-12-31T09:54:08.665Z,3.50
2022-12-31T09:56:36.926Z,3.54
2022-12-31T09:59:12.892Z,3.66
2022-12-31T10:02:19.608Z,3.72
2022-12-31T10:05:20.796Z,3.74
2022-12-31T10:08:06.188Z,3.88
2022-12-31T10:10:50.933Z,3.99
2022-12-31T10:13:29.805Z,4.08
2022-12-31T10:16:22.002Z,4.19
2022-12-31T10:19:14.119Z,4.36
2022-12-31T10:22:14.433Z,4.36
2022-12-31T10:25:05.097Z,4.43
2022-12-31T10:27:43.942Z,4.50
2022-12-31T10:30:18.760Z,4.57
2022-12-31T10:33:00.664Z,4.70
2022-12-31T10:35:40.099Z,4.80
2022-12-31T10:38:57.995Z,4.87
2022-12-31T10:41:33.404Z,4.96
2022-12-31T10:44:33.153Z,5.07
2022-12-31T10:47:24.781Z,5.19
2022-12-31T10:49:57.535Z,5.33
2022-12-31T10:53:13.135Z,5.43
2022-12-31T10:55:58.630Z,5.41
2022-12-31T10:58:31.198Z,5.51
2022-12-31T11:01:19.193Z,5.62
2022-12-31T11:04:03.931Z,5.67
2022-12-31T11:06:52.402Z,5.73
2022-12-31T11:09:49.970Z,5.77
2022-12-31T11:13:01.233Z,5.79
2022-12-31T11:15:52.363Z,5.86
2022-12-31T11:18:37.367Z,5.91
2022-12-31T11:21:28.288Z,6.05
2022-12-31T11:24:26.590Z,6.27
2022-12-31T11:27:07.579Z,6.37
2022-12-31T11:29:40.317Z,6.40
2022-12-31T11:32:36.389Z,6.44
2022-12-31T11:35:20.777Z,6.55
2022-12-31T11:37:50.601Z,6.64
2022-12-31T11:40:42.041Z,6.75
2022-12-31T11:43:22.765Z,6.80
2022-12-31T11:46:15.706Z,6.84
2022-12-31T11:49:04.329Z,6.90
2022-12-31T11:51:50.025Z,6.91
2022-12-31T11:54:40.285Z,7.09
2022-12-31T11:57:19.143Z,7.24
2022-12-31T11:59:46.804Z,7.28
2022-12-31T12:02:37.605Z,7.38
2022-12-31T12:05:11.104Z,7.41
2022-12-31T12:07:38.372Z,7.34
2022-12-31T12:10:36.727Z,7.41
2022-12-31T12:13:20.420Z,7.52
2022-12-31T12:15:51.043Z,7.52
2022-12-31T12:18:43.755Z,7.48
2022-12-31T12:21:24.186Z,7.41
2022-12-31T12:24:06.340Z,7.36
2022-12-31T12:26:39.299Z,7.43
2022-12-31T12:29:16.972Z,7.49
2022-12-31T12:32:12.528Z,7.46
2022-12-31T12:34:44.534Z,7.43
2022-12-31T12:37:27.134Z,7.38
2022-12-31T12:40:02.502Z,7.34
2022-12-31T12:42:30.250Z,7.30
2022-12-31T12:45:23.122Z,7.31
2022-12-31T12:47:56.450Z,7.30
2022-12-31T12:50:26.776Z,7.33
2022-12-31T12:53:37.679Z,7.44
2022-12-31T12:56:07.107Z,7.43
2022-12-31T12:58:49.876Z,7.47
2022-12-31T13:01:44.639Z,7.49
2022-12-31T13:04:36.175Z,7.58
2022-12-31T13:07:26.378Z,7.60
2022-12-31T13:10:08.047Z,7.57
2022-12-31T13:16:21.357Z,7.75
2022-12-31T13:19:09.304Z,7.81
2022-12-31T13:21:47.238Z,7.84
2022-12-31T13:24:47.079Z,7.95
2022-12-31T13:27:45.967Z,7.91
2022-12-31T13:30:19.746Z,7.88
2022-12-31T13:33:09.587Z,7.82
2022-12-31T13:35:57.772Z,7.72
2022-12-31T13:38:32.807Z,7.65
2022-12-31T13:41:21.275Z,7.57
2022-12-31T13:44:32.606Z,7.58
2022-12-31T13:47:48.494Z,7.50
2022-12-31T13:50:19.422Z,7.41
2022-12-31T13:52:57.969Z,7.43
2022-12-31T13:55:33.929Z,7.32
2022-12-31T13:58:15.648Z,7.23
2022-12-31T14:00:52.906Z,7.12
2022-12-31T14:03:25.854Z,7.06
2022-12-31T14:05:58.595Z,6.95
2022-12-31T14:08:25.256Z,6.95
2022-12-31T14:11:07.622Z,6.96
2022-12-31T14:13:35.043Z,6.92
2022-12-31T14:16:10.642Z,6.91
2022-12-31T14:18:54.124Z,6.75
2022-12-31T14:21:33.241Z,6.64
2022-12-31T14:24:12.932Z,6.52
2022-12-31T14:27:03.908Z,6.36
2022-12-31T14:30:03.876Z,6.30
2022-12-31T14:33:08.797Z,6.16
2022-12-31T14:35:55.811Z,6.06
2022-12-31T14:38:50.676Z,5.92
2022-12-31T14:41:44.974Z,5.84
2022-12-31T14:44:42.280Z,5.75
2022-12-31T14:47:27.633Z,5.68
2022-12-31T14:50:11.073Z,5.61
2022-12-31T14:52:53.168Z,5.54
2022-12-31T14:55:24.637Z,5.43
2022-12-31T14:58:26.379Z,5.35
2022-12-31T15:00:50.821Z,5.32
2022-12-31T15:03:17.630Z,5.28
2022-12-31T15:05:54.472Z,5.24
2022-12-31T15:08:39.560Z,5.17
2022-12-31T15:11:25.488Z,5.12
2022-12-31T15:14:38.916Z,5.17
2022-12-31T15:17:42.466Z,4.99
2022-12-31T15:20:17.196Z,4.96
2022-12-31T15:22:44.392Z,4.96
2022-12-31T15:25:47.761Z,4.91
2022-12-31T15:28:40.874Z,4.85
2022-12-31T15:31:18.501Z,4.75
2022-12-31T15:34:00.948Z,4.66
2022-12-31T15:36:41.879Z,4.68
2022-12-31T15:39:11.189Z,4.62
2022-12-31T15:42:10.339Z,4.57
2022-12-31T15:44:33.130Z,4.58
2022-12-31T15:47:15.928Z,4.53
2022-12-31T15:49:47.860Z,4.50
2022-12-31T15:52:36.568Z,4.42
2022-12-31T15:55:05.670Z,4.41
2022-12-31T15:57:40.336Z,4.43
2022-12-31T16:00:19.675Z,4.34
2022-12-31T16:02:48.584Z,4.24
2022-12-31T16:05:28.070Z,4.26
2022-12-31T16:07:56.927Z,4.26
2022-12-31T16:10:35.406Z,4.21
2022-12-31T16:13:02.132Z,4.12
2022-12-31T16:15:31.639Z,4.03
2022-12-31T16:18:23.160Z,3.98
2022-12-31T16:20:51.842Z,4.01
2022-12-31T16:23:27.598Z,4.03
2022-12-31T16:26:00.649Z,4.03
2022-12-31T16:28:32.519Z,3.95
2022-12-31T16:31:03.060Z,3.89
2022-12-31T16:33:31.198Z,3.78
2022-12-31T16:36:00.065Z,3.68
2022-12-31T16:38:35.381Z,3.65
2022-12-31T16:41:01.903Z,3.73
2022-12-31T16:43:30.928Z,3.84
2022-12-31T16:46:11.834Z,3.96
2022-12-31T16:48:38.913Z,4.00
2022-12-31T16:51:06.217Z,4.01
2022-12-31T16:53:37.202Z,4.06
2022-12-31T16:56:10.787Z,4.06
2022-12-31T16:58:41.693Z,4.13
2022-12-31T17:01:26.093Z,4.11
2022-12-31T17:03:58.392Z,4.18
2022-12-31T17:06:27.208Z,4.23
2022-12-31T17:08:57.948Z,4.21
2022-12-31T17:11:30.468Z,4.23
2022-12-31T17:14:06.746Z,4.29
2022-12-31T17:17:06.384Z,4.24
2022-12-31T17:19:35.997Z,4.11
2022-12-31T17:22:09.798Z,3.97
2022-12-31T17:24:38.035Z,3.92
2022-12-31T17:27:08.881Z,3.80
2022-12-31T17:29:36.146Z,3.79
2022-12-31T17:32:02.720Z,3.84
2022-12-31T17:34:49.122Z,3.78
2022-12-31T17:37:23.246Z,3.67
2022-12-31T17:40:48.652Z,3.54
2022-12-31T17:42:50.320Z,3.63
2022-12-31T17:45:22.111Z,3.69
2022-12-31T17:47:52.545Z,3.80
2022-12-31T17:50:26.094Z,3.87
2022-12-31T17:52:56.503Z,3.85
2022-12-31T17:55:23.486Z,3.89
2022-12-31T17:57:53.567Z,3.91
2022-12-31T18:00:23.527Z,3.94
2022-12-31T18:02:52.650Z,3.95
2022-12-31T18:05:21.633Z,3.98
2022-12-31T18:07:48.322Z,3.98
2022-12-31T18:10:17.415Z,3.90
2022-12-31T18:12:45.096Z,3.90
2022-12-31T18:15:17.410Z,3.92
2022-12-31T18:17:44.600Z,3.83
2022-12-31T18:20:12.276Z,3.84
2022-12-31T18:22:41.252Z,3.86
2022-12-31T18:25:19.215Z,3.89
2022-12-31T18:27:45.926Z,3.88
2022-12-31T18:30:13.283Z,3.91
2022-12-31T18:32:41.552Z,3.94
2022-12-31T18:38:13.250Z,3.97
2022-12-31T18:40:44.203Z,4.00
2022-12-31T18:43:18.921Z,4.02
2022-12-31T18:45:46.774Z,4.04
2022-12-31T18:48:13.507Z,4.09
2022-12-31T18:50:41.396Z,4.12
2022-12-31T18:53:14.901Z,4.21
2022-12-31T18:55:46.138Z,4.20
2022-12-31T18:58:12.765Z,4.18
2022-12-31T19:00:39.585Z,4.09
2022-12-31T19:03:06.339Z,3.74
2022-12-31T19:05:36.611Z,3.61
2022-12-31T19:08:03.423Z,3.53
2022-12-31T19:10:30.076Z,3.52
2022-12-31T19:12:56.698Z,3.51
2022-12-31T19:15:25.971Z,3.56
2022-12-31T19:17:52.881Z,3.66
2022-12-31T19:20:19.554Z,3.74
2022-12-31T19:22:46.265Z,3.79
2022-12-31T19:25:35.833Z,3.84
2022-12-31T19:28:04.269Z,3.93
2022-12-31T19:30:33.452Z,3.99
2022-12-31T19:33:00.553Z,4.00
2022-12-31T19:35:27.949Z,3.97
2022-12-31T19:37:55.525Z,3.96
2022-12-31T19:40:25.117Z,3.91
2022-12-31T19:42:56.331Z,3.89
2022-12-31T19:45:27.522Z,3.85
2022-12-31T19:47:55.953Z,3.69
2022-12-31T19:50:25.601Z,3.60
2022-12-31T19:52:54.760Z,3.56
2022-12-31T19:55:22.910Z,3.55
2022-12-31T19:57:49.674Z,3.61
2022-12-31T20:00:18.193Z,3.67
2022-12-31T20:02:47.452Z,3.70
2022-12-31T20:05:15.828Z,3.63
2022-12-31T20:07:42.724Z,3.45
2022-12-31T20:10:10.888Z,3.48
2022-12-31T20:12:43.919Z,3.41
2022-12-31T20:15:11.214Z,3.34
2022-12-31T20:17:38.020Z,3.23
2022-12-31T20:20:06.832Z,3.08
2022-12-31T20:22:33.685Z,3.12
2022-12-31T20:25:00.415Z,3.17
2022-12-31T20:27:27.063Z,3.22
2022-12-31T20:29:53.693Z,3.26
2022-12-31T20:32:20.312Z,3.32
2022-12-31T20:34:46.936Z,3.32
2022-12-31T20:37:13.722Z,3.28
2022-12-31T20:39:40.353Z,3.29
2022-12-31T20:42:07.059Z,3.24
2022-12-31T20:44:33.873Z,3.29
2022-12-31T20:47:00.531Z,3.27
2022-12-31T20:50:00.837Z,3.29
2022-12-31T20:52:13.766Z,3.24
2022-12-31T20:54:40.373Z,3.31
2022-12-31T20:57:07.027Z,3.32
2022-12-31T20:59:33.639Z,3.36
2022-12-31T21:04:47.156Z,3.53
2022-12-31T21:07:13.828Z,3.54
2022-12-31T21:09:40.443Z,3.54
2022-12-31T21:12:25.631Z,3.51
2022-12-31T21:14:52.275Z,3.50
2022-12-31T21:17:18.850Z,3.51
2022-12-31T21:19:45.681Z,3.53
2022-12-31T21:22:12.459Z,3.56
2022-12-31T21:24:41.570Z,3.55
2022-12-31T21:27:08.161Z,3.55
2022-12-31T21:29:41.876Z,3.58
2022-12-31T21:32:17.135Z,3.58
2022-12-31T21:34:43.701Z,3.59
2022-12-31T21:37:10.340Z,3.60
2022-12-31T21:39:36.938Z,3.63
2022-12-31T21:42:04.032Z,3.62
2022-12-31T21:44:30.803Z,3.66
2022-12-31T21:47:39.717Z,3.71
2022-12-31T21:50:08.209Z,3.79
2022-12-31T21:52:35.284Z,3.76
2022-12-31T21:55:22.867Z,3.80
2022-12-31T22:00:56.109Z,3.78
2022-12-31T22:03:27.800Z,3.77
2022-12-31T22:06:12.555Z,3.77
2022-12-31T22:08:44.151Z,3.82
2022-12-31T22:11:12.459Z,3.85
2022-12-31T22:13:39.888Z,3.89
2022-12-31T22:16:07.611Z,3.92
2022-12-31T22:18:38.844Z,3.89
2022-12-31T22:21:18.408Z,3.83
2022-12-31T22:23:52.112Z,3.70
2022-12-31T22:26:22.021Z,3.60
2022-12-31T22:28:48.690Z,3.55
2022-12-31T22:31:22.743Z,3.46
2022-12-31T22:33:49.482Z,3.38
2022-12-31T22:36:19.815Z,3.38
2022-12-31T22:38:47.286Z,3.40
2022-12-31T22:41:19.561Z,3.35
2022-12-31T22:44:03.791Z,3.33
2022-12-31T22:46:32.645Z,3.38
2022-12-31T22:49:00.475Z,3.41
2022-12-31T22:51:54.985Z,3.45
2022-12-31T22:54:14.821Z,3.51
2022-12-31T22:56:41.619Z,3.52
2022-12-31T22:59:08.593Z,3.55
2022-12-31T23:01:35.362Z,3.59
2022-12-31T23:04:02.059Z,3.57
2022-12-31T23:06:29.170Z,3.55
2022-12-31T23:09:14.505Z,3.59
2022-12-31T23:11:43.126Z,3.59
2022-12-31T23:14:34.312Z,3.60
2022-12-31T23:17:29.675Z,3.61
2022-12-31T23:20:18.377Z,3.58
2022-12-31T23:23:04.895Z,3.59
2022-12-31T23:25:43.716Z,3.61
2022-12-31T23:28:13.571Z,3.59
2022-12-31T23:30:41.641Z,3.58
2022-12-31T23:33:12.419Z,3.67
2022-12-31T23:35:39.014Z,3.72
2022-12-31T23:38:05.634Z,3.76
2022-12-31T23:40:37.086Z,3.78
2022-12-31T23:43:08.118Z,3.79
2022-12-31T23:45:35.115Z,3.76
2022-12-31T23:48:01.952Z,3.77
2022-12-31T23:50:28.958Z,3.79
2022-12-31T23:52:55.644Z,3.76
2022-12-31T23:55:22.232Z,3.73
2022-12-31T23:57:48.904Z,3.64
